Time;durP1;ratioP1;P1;durP2;ratioP2;P2;SDS_P1;SDS_P2;PMS_P1;PMS_P2;Temp;Humidity;BMP_temperature;BMP_pressure;BME280_temperature;BME280_humidity;BME280_pressure;Samples;Min_cycle;Max_cycle;Signal;HPM_P1;HPM_P2
2023/04/01 00:00:19;;;;;;;5.75;2.38;;;;;;;8.94;100.00;99041.75;4987651;28;20014;-85
2023/04/01 00:02:46;;;;;;;7.43;2.00;;;;;;;8.93;100.00;99030.03;4972880;28;20508;-85
2023/04/01 00:05:12;;;;;;;4.50;2.28;;;;;;;8.91;100.00;99033.91;4989237;28;20117;-85
2023/04/01 00:07:39;;;;;;;4.22;1.75;;;;;;;8.95;100.00;99043.44;4991631;28;20046;-84
2023/04/01 00:10:10;;;;;;;7.20;2.15;;;;;;;8.91;100.00;99036.63;4973577;28;20026;-86
2023/04/01 00:12:37;;;;;;;3.88;2.10;;;;;;;8.92;100.00;99039.19;4975606;28;20052;-84
2023/04/01 00:15:04;;;;;;;6.13;2.13;;;;;;;8.87;100.00;99044.19;4986099;28;20444;-85
2023/04/01 00:17:30;;;;;;;4.88;1.77;;;;;;;8.87;100.00;99036.06;4983111;28;20443;-86
2023/04/01 00:19:56;;;;;;;4.40;1.88;;;;;;;8.93;100.00;99050.88;4991192;28;20080;-85
2023/04/01 00:22:21;;;;;;;8.73;2.50;;;;;;;8.83;100.00;99031.06;4989760;28;20038;-84
2023/04/01 00:24:47;;;;;;;6.90;2.28;;;;;;;8.86;100.00;99041.59;4973678;28;20057;-86
2023/04/01 00:27:13;;;;;;;5.50;1.95;;;;;;;8.87;100.00;99030.63;4991299;28;20391;-85
2023/04/01 00:29:42;;;;;;;5.35;2.45;;;;;;;8.91;100.00;99048.34;4987483;28;20030;-86
2023/04/01 00:32:07;;;;;;;4.43;2.40;;;;;;;8.89;100.00;99044.03;5006002;28;20025;-85
2023/04/01 00:34:32;;;;;;;3.47;2.13;;;;;;;8.90;100.00;99043.88;5001177;28;20124;-86
2023/04/01 00:36:58;;;;;;;5.03;2.35;;;;;;;8.84;100.00;99036.34;4992933;28;20040;-85
2023/04/01 00:39:23;;;;;;;10.95;3.05;;;;;;;8.90;100.00;99048.47;4993256;28;20034;-85
2023/04/01 00:41:49;;;;;;;11.07;2.92;;;;;;;8.90;100.00;99049.31;5009216;28;20125;-85
2023/04/01 00:44:19;;;;;;;5.60;3.40;;;;;;;8.93;100.00;99059.03;4976031;28;20053;-87
2023/04/01 00:46:45;;;;;;;5.28;2.38;;;;;;;8.90;100.00;99054.72;4992311;28;20564;-85
2023/04/01 00:49:12;;;;;;;7.68;4.43;;;;;;;8.83;100.00;99045.47;4984290;28;20041;-87
2023/04/01 00:51:40;;;;;;;3.92;2.83;;;;;;;8.96;100.00;99066.88;4990755;28;20434;-85
2023/04/01 00:54:08;;;;;;;7.00;3.40;;;;;;;8.90;100.00;99062.00;4986792;28;20454;-86
2023/04/01 00:56:50;;;;;;;7.20;3.13;;;;;;;8.94;100.00;99066.16;4975713;28;20131;-86
2023/04/01 00:59:25;;;;;;;7.82;3.60;;;;;;;8.87;100.00;99059.63;4994264;28;20046;-87
2023/04/01 01:01:50;;;;;;;7.47;3.88;;;;;;;8.97;100.00;99074.00;4989894;28;20042;-86
2023/04/01 01:04:26;;;;;;;7.32;3.80;;;;;;;8.97;100.00;99078.59;4980792;28;20617;-85
2023/04/01 01:07:07;;;;;;;6.60;3.40;;;;;;;8.97;100.00;99076.72;4992576;28;20030;-85
2023/04/01 01:09:46;;;;;;;6.45;4.07;;;;;;;8.92;100.00;99068.16;4992764;28;20037;-86
2023/04/01 01:12:19;;;;;;;5.55;4.25;;;;;;;8.87;100.00;99067.75;4991329;28;20034;-86
2023/04/01 01:15:05;;;;;;;9.43;4.65;;;;;;;8.92;100.00;99074.44;4992978;28;20026;-86
2023/04/01 01:17:52;;;;;;;5.68;4.00;;;;;;;8.97;100.00;99084.00;4975168;28;20070;-84
2023/04/01 01:20:48;;;;;;;4.30;3.55;;;;;;;8.97;100.00;99081.28;4991792;28;20045;-85
2023/04/01 01:23:30;;;;;;;7.28;4.32;;;;;;;8.96;100.00;99085.03;4991960;28;20494;-85
2023/04/01 01:26:11;;;;;;;5.70;4.22;;;;;;;8.90;100.00;99078.28;5008376;28;20038;-86
2023/04/01 01:29:01;;;;;;;8.00;4.82;;;;;;;8.94;100.00;99087.84;4992274;28;20513;-86
2023/04/01 01:31:54;;;;;;;5.82;4.47;;;;;;;8.88;100.00;99080.31;5007977;28;20292;-86
2023/04/01 01:34:31;;;;;;;7.38;4.80;;;;;;;8.87;100.00;99076.75;5006984;28;20033;-85
2023/04/01 01:37:01;;;;;;;9.15;5.25;;;;;;;8.94;100.00;99096.84;5011776;28;20438;-85
2023/04/01 01:39:31;;;;;;;10.68;6.03;;;;;;;8.96;100.00;99095.88;4996380;28;20066;-85
2023/04/01 01:42:01;;;;;;;8.38;5.40;;;;;;;8.95;100.00;99086.84;4974361;28;20241;-85
2023/04/01 01:44:30;;;;;;;8.95;6.40;;;;;;;8.88;100.00;99088.44;4989549;28;20598;-86
2023/04/01 01:46:56;;;;;;;9.98;6.10;;;;;;;8.90;100.00;99094.56;5006877;28;20589;-87
2023/04/01 01:49:23;;;;;;;9.07;6.95;;;;;;;8.85;100.00;99086.00;4990757;28;20034;-86
2023/04/01 01:51:48;;;;;;;11.73;7.40;;;;;;;8.86;100.00;99090.41;4974276;28;20422;-85
2023/04/01 01:54:18;;;;;;;11.27;7.28;;;;;;;8.88;100.00;99094.72;4990167;28;20030;-86
2023/04/01 01:56:48;;;;;;;12.85;7.75;;;;;;;8.91;100.00;99093.59;4974267;28;20073;-85
2023/04/01 01:59:17;;;;;;;10.27;7.10;;;;;;;8.94;100.00;99115.81;4989602;28;20041;-86
2023/04/01 02:01:48;;;;;;;7.97;6.40;;;;;;;8.90;100.00;99105.41;4970472;28;20376;-85
2023/04/01 02:04:16;;;;;;;7.90;6.00;;;;;;;8.88;100.00;99105.56;4987634;28;20041;-85
2023/04/01 02:06:53;;;;;;;11.10;6.05;;;;;;;8.90;100.00;99111.69;4993934;28;20445;-86
2023/04/01 02:09:19;;;;;;;9.20;5.72;;;;;;;8.87;100.00;99111.13;4993882;28;20030;-85
2023/04/01 02:11:55;;;;;;;8.90;5.63;;;;;;;8.88;100.00;99120.97;5005434;28;20545;-86
2023/04/01 02:14:23;;;;;;;7.20;5.22;;;;;;;8.87;100.00;99125.53;4988936;28;20033;-86
2023/04/01 02:17:05;;;;;;;8.50;4.63;;;;;;;8.80;100.00;99118.13;4989598;28;20037;-85
2023/04/01 02:19:39;;;;;;;8.33;4.50;;;;;;;8.79;100.00;99122.69;4973181;28;20037;-86
2023/04/01 02:22:11;;;;;;;9.45;4.70;;;;;;;8.82;100.00;99126.97;4989610;28;20384;-86
2023/04/01 02:24:41;;;;;;;9.07;5.70;;;;;;;8.82;100.00;99132.41;4989397;28;20035;-85
2023/04/01 02:27:10;;;;;;;8.88;5.97;;;;;;;8.71;100.00;99118.97;4973647;28;20384;-84
2023/04/01 02:29:35;;;;;;;8.85;5.35;;;;;;;8.71;100.00;99111.69;4972726;28;20033;-86
2023/04/01 02:32:02;;;;;;;8.45;6.28;;;;;;;8.70;100.00;99115.41;5005289;28;20129;-85
2023/04/01 02:34:29;;;;;;;9.65;6.13;;;;;;;8.76;100.00;99128.38;4989513;28;20057;-87
2023/04/01 02:36:55;;;;;;;10.23;6.05;;;;;;;8.71;100.00;99114.41;4989821;28;20137;-86
2023/04/01 02:39:22;;;;;;;13.90;8.07;;;;;;;8.64;100.00;99116.84;4973565;28;20050;-85
2023/04/01 02:41:48;;;;;;;15.30;8.32;;;;;;;8.72;100.00;99129.69;4989673;28;20121;-86
2023/04/01 02:44:14;;;;;;;12.48;7.30;;;;;;;8.74;100.00;99134.97;5001132;28;20133;-85
2023/04/01 02:46:40;;;;;;;14.35;8.23;;;;;;;8.72;100.00;99128.81;4972852;28;20022;-86
2023/04/01 02:49:06;;;;;;;13.18;7.18;;;;;;;8.68;100.00;99128.25;4988299;28;20486;-84
2023/04/01 02:51:33;;;;;;;13.40;7.45;;;;;;;8.71;100.00;99137.94;4973462;28;20034;-87
2023/04/01 02:53:58;;;;;;;14.50;7.13;;;;;;;8.69;100.00;99138.09;4994587;28;20080;-86
2023/04/01 02:56:23;;;;;;;12.50;7.28;;;;;;;8.68;100.00;99134.53;4992446;28;20022;-85
2023/04/01 02:58:49;;;;;;;10.95;7.63;;;;;;;8.66;100.00;99136.50;4998692;28;20060;-86
2023/04/01 03:01:14;;;;;;;15.52;8.57;;;;;;;8.63;100.00;99133.25;4988029;28;20050;-85
2023/04/01 03:03:40;;;;;;;16.30;9.02;;;;;;;8.64;100.00;99141.22;4991003;28;20113;-86
2023/04/01 03:06:08;;;;;;;17.30;9.15;;;;;;;8.63;100.00;99142.22;5009644;28;20034;-84
2023/04/01 03:08:34;;;;;;;15.75;9.07;;;;;;;8.67;100.00;99150.91;5009003;28;20026;-85
2023/04/01 03:10:59;;;;;;;21.25;10.32;;;;;;;8.63;100.00;99149.50;5000331;28;20498;-85
2023/04/01 03:13:25;;;;;;;17.38;8.68;;;;;;;8.53;100.00;99132.34;4989063;28;20027;-86
2023/04/01 03:15:50;;;;;;;20.98;9.35;;;;;;;8.69;100.00;99159.78;4986869;28;20454;-85
2023/04/01 03:18:16;;;;;;;15.70;9.52;;;;;;;8.66;100.00;99160.06;4972600;28;20035;-86
2023/04/01 03:20:41;;;;;;;19.42;8.63;;;;;;;8.63;100.00;99154.94;4989039;28;20084;-85
2023/04/01 03:23:07;;;;;;;17.10;9.02;;;;;;;8.66;100.00;99165.47;4989994;28;20042;-85
2023/04/01 03:25:33;;;;;;;13.38;8.18;;;;;;;8.61;100.00;99171.31;4989208;28;20399;-86
2023/04/01 03:27:59;;;;;;;16.38;9.02;;;;;;;8.65;100.00;99174.63;4972382;28;20085;-85
2023/04/01 03:30:25;;;;;;;13.20;8.50;;;;;;;8.56;100.00;99165.47;4983905;28;20484;-85
2023/04/01 03:32:51;;;;;;;12.10;6.63;;;;;;;8.64;100.00;99167.47;4970718;28;20030;-86
2023/04/01 03:35:17;;;;;;;11.38;6.72;;;;;;;8.64;100.00;99173.75;5004711;28;20041;-85
2023/04/01 03:37:44;;;;;;;17.30;7.45;;;;;;;8.61;100.00;99170.47;5007534;28;20406;-85
2023/04/01 03:40:10;;;;;;;11.13;7.13;;;;;;;8.58;100.00;99177.03;4976499;28;20034;-85
2023/04/01 03:42:36;;;;;;;11.05;6.22;;;;;;;8.60;100.00;99166.91;4988581;28;20041;-86
2023/04/01 03:45:04;;;;;;;9.35;5.88;;;;;;;8.62;100.00;99183.88;4971762;28;20030;-86
2023/04/01 03:47:29;;;;;;;8.90;6.22;;;;;;;8.60;100.00;99183.16;4988198;28;20052;-85
2023/04/01 03:49:54;;;;;;;9.85;6.05;;;;;;;8.56;100.00;99172.75;5004209;28;20038;-85
2023/04/01 03:52:21;;;;;;;9.57;6.35;;;;;;;8.63;100.00;99187.47;4972158;28;20046;-85
2023/04/01 03:54:46;;;;;;;8.15;5.68;;;;;;;8.57;100.00;99180.72;4972283;28;20057;-85
2023/04/01 03:57:11;;;;;;;9.90;5.35;;;;;;;8.62;100.00;99193.84;4968907;28;20059;-86
2023/04/01 03:59:37;;;;;;;9.30;5.00;;;;;;;8.54;100.00;99174.75;4989374;28;20026;-86
2023/04/01 04:02:04;;;;;;;7.95;4.85;;;;;;;8.53;100.00;99182.00;5007623;28;20046;-86
2023/04/01 04:04:30;;;;;;;6.63;4.60;;;;;;;8.57;100.00;99196.97;5006344;28;20056;-85
2023/04/01 04:06:56;;;;;;;6.25;4.78;;;;;;;8.59;100.00;99199.56;4992014;28;20025;-85
2023/04/01 04:09:22;;;;;;;8.57;4.30;;;;;;;8.51;100.00;99192.13;5007930;28;20026;-85
2023/04/01 04:11:49;;;;;;;8.50;4.65;;;;;;;8.55;100.00;99200.84;5007636;28;20045;-86
2023/04/01 04:14:14;;;;;;;13.52;5.60;;;;;;;8.55;100.00;99203.56;5004496;28;20445;-85
2023/04/01 04:16:40;;;;;;;8.02;4.95;;;;;;;8.50;100.00;99201.25;4990409;28;20021;-85
2023/04/01 04:19:05;;;;;;;6.25;4.43;;;;;;;8.51;100.00;99202.97;5000178;28;20037;-86
2023/04/01 04:21:31;;;;;;;5.97;4.35;;;;;;;8.48;100.00;99196.97;4972205;28;20026;-85
2023/04/01 04:24:00;;;;;;;6.68;4.70;;;;;;;8.51;100.00;99211.09;4987998;28;20552;-86
2023/04/01 04:26:26;;;;;;;11.32;5.05;;;;;;;8.49;100.00;99207.69;4987541;28;20046;-86
2023/04/01 04:28:58;;;;;;;;;;;;;;;8.56;100.00;99222.38;4996873;28;20042;-86
2023/04/01 04:31:25;;;;;;;5.97;4.57;;;;;;;8.49;100.00;99212.25;4988728;28;20072;-85
2023/04/01 04:33:52;;;;;;;7.57;4.95;;;;;;;8.50;100.00;99220.22;4987823;28;20515;-86
2023/04/01 04:36:19;;;;;;;5.32;3.88;;;;;;;8.41;100.00;99221.91;4988251;28;20035;-85
2023/04/01 04:38:45;;;;;;;7.72;4.43;;;;;;;8.37;100.00;99201.50;4988026;28;20022;-85
2023/04/01 04:41:13;;;;;;;6.90;4.30;;;;;;;8.42;100.00;99210.06;4987965;28;20466;-86
2023/04/01 04:43:41;;;;;;;5.53;4.07;;;;;;;8.37;100.00;99216.91;4971338;28;20037;-85
2023/04/01 04:46:09;;;;;;;10.35;3.90;;;;;;;8.38;100.00;99216.75;4986767;28;20656;-86
2023/04/01 04:48:35;;;;;;;8.63;3.83;;;;;;;8.37;100.00;99219.63;4976028;28;20022;-84
2023/04/01 04:51:01;;;;;;;8.05;3.60;;;;;;;8.41;100.00;99229.19;4995261;28;20137;-85
2023/04/01 04:53:27;;;;;;;5.72;3.75;;;;;;;8.41;100.00;99231.91;4984286;28;20435;-86
2023/04/01 04:55:53;;;;;;;6.15;3.92;;;;;;;8.37;100.00;99233.16;5003623;28;20033;-86
2023/04/01 04:58:31;;;;;;;6.70;4.13;;;;;;;8.40;100.00;99238.31;5009881;28;20029;-85
2023/04/01 05:00:56;;;;;;;6.35;3.28;;;;;;;8.40;100.00;99251.88;4993907;28;20229;-86
2023/04/01 05:03:26;;;;;;;7.30;4.15;;;;;;;8.41;100.00;99264.41;4992281;28;20498;-85
2023/04/01 05:05:53;;;;;;;6.93;4.22;;;;;;;8.34;100.00;99249.66;4994891;28;20036;-85
2023/04/01 05:08:19;;;;;;;5.72;3.85;;;;;;;8.32;100.00;99251.66;4994680;28;20025;-85
2023/04/01 05:10:46;;;;;;;6.35;3.58;;;;;;;8.28;100.00;99247.50;5010888;28;20485;-86
2023/04/01 05:13:11;;;;;;;5.03;3.70;;;;;;;8.36;100.00;99270.25;4995543;28;20044;-86
2023/04/01 05:15:37;;;;;;;5.90;3.13;;;;;;;8.31;100.00;99260.78;4970580;28;20339;-86
2023/04/01 05:18:03;;;;;;;5.78;4.03;;;;;;;8.31;100.00;99263.50;4971258;28;20035;-86
2023/04/01 05:20:29;;;;;;;5.82;4.35;;;;;;;8.32;100.00;99273.31;4972992;28;20653;-85
2023/04/01 05:22:59;;;;;;;6.38;4.20;;;;;;;8.28;100.00;99261.91;4974914;28;20035;-87
2023/04/01 05:25:24;;;;;;;5.57;3.42;;;;;;;8.29;100.00;99279.84;4985635;28;20030;-85
2023/04/01 05:27:50;;;;;;;5.55;3.97;;;;;;;8.27;100.00;99276.44;5011455;28;20371;-85
2023/04/01 05:30:15;;;;;;;5.00;3.70;;;;;;;8.32;100.00;99286.88;4990478;28;20042;-86
2023/04/01 05:32:52;;;;;;;4.72;3.70;;;;;;;8.28;100.00;99280.00;4976214;28;20112;-86
2023/04/01 05:35:18;;;;;;;4.20;3.50;;;;;;;8.37;100.00;99299.03;4974144;28;20065;-85
2023/04/01 05:37:43;;;;;;;4.82;3.40;;;;;;;8.29;100.00;99295.25;4992184;28;20126;-86
2023/04/01 05:40:09;;;;;;;4.65;3.55;;;;;;;8.31;100.00;99304.13;4990889;28;20045;-86
2023/04/01 05:42:35;;;;;;;6.18;3.88;;;;;;;8.36;100.00;99307.28;4974624;28;20042;-86
2023/04/01 05:45:01;;;;;;;4.82;3.63;;;;;;;8.32;100.00;99300.41;4995795;28;20042;-85
2023/04/01 05:47:49;;;;;;;5.80;3.58;;;;;;;8.37;100.00;99311.75;5008138;28;20026;-86
2023/04/01 05:50:15;;;;;;;5.97;3.72;;;;;;;8.40;100.00;99316.91;4977153;28;20047;-85
2023/04/01 05:52:40;;;;;;;6.32;4.55;;;;;;;8.34;100.00;99318.25;4974281;28;20030;-85
2023/04/01 05:55:06;;;;;;;6.65;4.22;;;;;;;8.32;100.00;99305.84;4991247;28;20070;-85
2023/04/01 05:57:32;;;;;;;6.00;4.03;;;;;;;8.34;100.00;99314.69;4974680;28;20040;-86
2023/04/01 05:59:58;;;;;;;7.97;4.70;;;;;;;8.43;100.00;99335.59;4972227;28;20482;-85
2023/04/01 06:02:23;;;;;;;8.77;5.10;;;;;;;8.38;100.00;99333.28;4989823;28;20039;-84
2023/04/01 06:05:01;;;;;;;9.75;5.95;;;;;;;8.45;100.00;99340.88;4973709;28;20038;-86
2023/04/01 06:07:27;;;;;;;9.20;6.05;;;;;;;8.40;100.00;99333.16;4974181;28;20221;-86
2023/04/01 06:09:54;;;;;;;10.95;6.57;;;;;;;8.45;100.00;99351.72;4991354;28;20030;-85
2023/04/01 06:12:41;;;;;;;10.65;6.65;;;;;;;8.49;100.00;99355.91;4974286;28;20089;-85
2023/04/01 06:15:24;;;;;;;9.15;5.53;;;;;;;8.45;100.00;99355.28;4984939;28;20053;-87
2023/04/01 06:18:07;;;;;;;9.68;6.13;;;;;;;8.47;100.00;99356.00;4996576;28;20111;-86
2023/04/01 06:21:10;;;;;;;8.80;4.82;;;;;;;8.54;100.00;99367.19;5009090;28;20026;-85
2023/04/01 06:23:43;;;;;;;9.38;5.50;;;;;;;8.55;100.00;99374.31;4999808;28;20590;-85
2023/04/01 06:26:21;;;;;;;7.65;5.22;;;;;;;8.56;100.00;99376.88;4974127;28;20042;-85
2023/04/01 06:28:50;;;;;;;9.30;5.82;;;;;;;8.58;100.00;99380.34;4973365;28;20054;-85
2023/04/01 06:31:34;;;;;;;10.50;6.18;;;;;;;8.61;100.00;99379.19;4978076;28;20537;-85
2023/04/01 06:34:14;;;;;;;10.32;6.22;;;;;;;8.62;100.00;99387.19;4994498;28;20037;-85
2023/04/01 06:36:47;;;;;;;9.02;6.03;;;;;;;8.59;100.00;99378.47;4995545;28;20038;-85
2023/04/01 06:39:30;;;;;;;11.10;6.28;;;;;;;8.65;100.00;99388.78;4973773;28;20045;-85
2023/04/01 06:42:21;;;;;;;10.18;6.13;;;;;;;8.62;100.00;99386.31;4970818;28;20495;-85
2023/04/01 06:45:26;;;;;;;13.75;6.53;;;;;;;8.65;100.00;99383.34;4974549;28;20529;-86
2023/04/01 06:48:25;;;;;;;11.70;7.03;;;;;;;8.74;100.00;99400.66;4970452;28;20042;-84
2023/04/01 06:51:52;;;;;;;12.52;7.72;;;;;;;8.76;100.00;99394.09;4980418;28;20271;-86
2023/04/01 06:54:40;;;;;;;14.50;8.18;;;;;;;8.79;100.00;99411.97;4989750;28;20104;-85
2023/04/01 06:57:36;;;;;;;17.80;9.27;;;;;;;8.81;100.00;99418.09;4990658;28;20466;-86
2023/04/01 07:00:12;;;;;;;17.02;9.80;;;;;;;8.79;100.00;99415.53;4971565;28;20053;-85
2023/04/01 07:02:53;;;;;;;17.02;10.02;;;;;;;8.75;100.00;99408.66;4988619;28;20077;-85
2023/04/01 07:05:19;;;;;;;19.20;10.50;;;;;;;8.87;100.00;99425.72;4989865;28;20031;-85
2023/04/01 07:07:49;;;;;;;18.77;9.55;;;;;;;8.91;100.00;99432.59;4974282;28;20030;-85
2023/04/01 07:10:53;;;;;;;19.63;9.73;;;;;;;8.93;100.00;99430.59;4989359;28;20042;-85
2023/04/01 07:13:52;;;;;;;21.77;10.63;;;;;;;8.99;100.00;99442.75;4981489;28;20065;-86
2023/04/01 07:16:39;;;;;;;20.88;10.10;;;;;;;8.98;100.00;99425.59;5003104;28;20033;-86
2023/04/01 07:19:16;;;;;;;19.92;10.65;;;;;;;9.02;100.00;99442.47;5003236;28;20498;-86
2023/04/01 07:22:33;;;;;;;21.23;10.70;;;;;;;9.09;100.00;99449.94;4989738;28;20053;-85
2023/04/01 07:25:37;;;;;;;17.33;9.38;;;;;;;9.13;100.00;99458.66;4985247;28;20490;-85
2023/04/01 07:28:37;;;;;;;18.38;9.20;;;;;;;9.09;100.00;99446.34;4986889;28;20036;-85
2023/04/01 07:31:15;;;;;;;21.38;10.70;;;;;;;9.16;100.00;99464.66;4972134;28;20433;-85
2023/04/01 07:33:59;;;;;;;19.33;9.68;;;;;;;9.20;100.00;99467.97;4973093;28;20034;-86
2023/04/01 07:36:38;;;;;;;22.65;10.73;;;;;;;9.21;100.00;99480.53;4988411;28;20085;-86
2023/04/01 07:39:25;;;;;;;18.67;9.80;;;;;;;9.20;100.00;99473.41;4988681;28;20490;-86
2023/04/01 07:42:23;;;;;;;22.58;9.85;;;;;;;9.20;100.00;99479.69;4987436;28;20034;-86
2023/04/01 07:45:11;;;;;;;20.17;9.50;;;;;;;9.16;100.00;99463.81;4968710;28;20034;-86
2023/04/01 07:47:59;;;;;;;19.45;9.27;;;;;;;9.25;100.00;99482.00;4975705;28;20058;-85
2023/04/01 07:50:54;;;;;;;20.95;9.70;;;;;;;9.29;100.00;99488.00;4992534;28;20041;-86
2023/04/01 07:53:35;;;;;;;19.48;10.25;;;;;;;9.30;100.00;99493.28;4972220;28;20428;-85
2023/04/01 07:56:11;;;;;;;23.52;11.85;;;;;;;9.27;100.00;99495.41;4971713;28;20042;-85
2023/04/01 07:58:44;;;;;;;18.90;10.30;;;;;;;9.33;100.00;99497.59;4987402;28;20030;-85
2023/04/01 08:01:22;;;;;;;20.20;9.38;;;;;;;9.40;100.00;99507.75;4987353;28;20064;-85
2023/04/01 08:04:03;;;;;;;22.42;9.57;;;;;;;9.49;100.00;99516.09;4988161;28;20518;-85
2023/04/01 08:07:00;;;;;;;19.52;10.27;;;;;;;9.52;100.00;99505.81;4953756;28;20037;-88
2023/04/01 08:09:50;;;;;;;20.00;9.52;;;;;;;9.68;100.00;99518.88;4969740;28;20510;-90
2023/04/01 08:13:31;;;;;;;17.00;9.25;;;;;;;9.69;100.00;99512.44;4937191;28;20039;-90
2023/04/01 08:16:26;;;;;;;16.73;9.00;;;;;;;9.79;100.00;99523.31;4966518;28;20529;-88
2023/04/01 08:19:13;;;;;;;15.50;9.10;;;;;;;9.72;100.00;99520.31;4968583;28;20137;-89
2023/04/01 08:21:43;;;;;;;17.85;9.00;;;;;;;9.78;100.00;99535.19;4972348;28;20034;-88
2023/04/01 08:24:43;;;;;;;16.88;9.88;;;;;;;9.83;100.00;99535.63;4990493;28;20401;-89
2023/04/01 08:27:25;;;;;;;18.45;10.15;;;;;;;9.80;100.00;99536.78;4991847;28;20041;-89
2023/04/01 08:30:30;;;;;;;21.58;10.07;;;;;;;9.89;100.00;99546.81;4966456;28;20040;-89
2023/04/01 08:33:19;;;;;;;17.55;9.70;;;;;;;9.86;100.00;99543.50;4976051;28;20488;-87
2023/04/01 08:35:59;;;;;;;18.83;9.93;;;;;;;9.95;100.00;99550.81;4972939;28;20129;-89
2023/04/01 08:38:34;;;;;;;20.58;9.63;;;;;;;9.97;100.00;99548.81;4964877;28;20115;-88
2023/04/01 08:41:37;;;;;;;18.00;9.75;;;;;;;9.97;100.00;99557.81;4972921;28;20045;-89
2023/04/01 08:45:00;;;;;;;17.25;9.45;;;;;;;10.00;100.00;99564.00;4983853;28;20057;-88
2023/04/01 08:47:53;;;;;;;17.33;9.43;;;;;;;9.99;100.00;99556.84;4986047;28;20060;-87
2023/04/01 08:50:27;;;;;;;16.13;9.45;;;;;;;10.06;100.00;99572.44;4983896;28;20030;-88
2023/04/01 08:53:48;;;;;;;18.63;9.85;;;;;;;10.10;100.00;99573.88;4975695;28;20133;-89
2023/04/01 08:57:04;;;;;;;14.77;9.57;;;;;;;10.05;100.00;99570.72;4963872;28;20038;-88
2023/04/01 08:59:56;;;;;;;15.23;8.88;;;;;;;10.12;100.00;99590.06;4968171;28;20581;-88
2023/04/01 09:03:14;;;;;;;21.02;9.80;;;;;;;10.12;100.00;99592.78;4975246;28;20518;-88
2023/04/01 09:06:20;;;;;;;18.80;10.05;;;;;;;10.09;100.00;99595.75;4978075;28;20454;-89
2023/04/01 09:09:08;;;;;;;13.15;8.32;;;;;;;10.10;100.00;99603.78;4967168;28;20026;-88
2023/04/01 09:11:55;;;;;;;17.48;9.02;;;;;;;10.14;100.00;99604.38;4963747;28;20479;-88
2023/04/01 09:14:48;;;;;;;14.80;9.67;;;;;;;10.18;100.00;99600.38;4987190;28;20171;-87
2023/04/01 09:17:49;;;;;;;12.93;8.80;;;;;;;10.31;100.00;99605.59;4971979;28;20309;-87
2023/04/01 09:20:39;;;;;;;18.50;8.38;;;;;;;10.38;100.00;99613.03;4986718;28;20030;-88
2023/04/01 09:23:42;;;;;;;12.48;7.63;;;;;;;10.38;100.00;99621.19;5005559;28;20041;-89
2023/04/01 09:26:13;;;;;;;12.15;7.60;;;;;;;10.44;100.00;99623.34;4990461;28;20087;-88
2023/04/01 09:28:53;;;;;;;14.97;7.67;;;;;;;10.51;100.00;99623.66;4973958;28;20522;-88
2023/04/01 09:31:47;;;;;;;11.68;6.78;;;;;;;10.60;100.00;99628.25;5001238;28;20169;-87
2023/04/01 09:34:41;;;;;;;11.35;6.93;;;;;;;10.67;100.00;99629.38;4990348;28;20045;-88
2023/04/01 09:37:07;;;;;;;12.40;5.90;;;;;;;10.70;100.00;99629.09;5008239;28;20513;-87
2023/04/01 09:39:57;;;;;;;8.55;6.05;;;;;;;10.77;100.00;99625.81;4969855;28;20026;-88
2023/04/01 09:42:43;;;;;;;11.00;6.30;;;;;;;10.83;100.00;99637.00;4961138;28;20038;-87
2023/04/01 09:45:31;;;;;;;10.90;6.13;;;;;;;10.91;100.00;99636.25;4977639;28;20134;-87
2023/04/01 09:47:56;;;;;;;7.45;5.97;;;;;;;10.98;100.00;99630.09;4966419;28;20038;-88
2023/04/01 09:50:29;;;;;;;7.95;6.40;;;;;;;11.07;100.00;99643.88;4989551;28;20022;-88
2023/04/01 09:53:02;;;;;;;8.88;5.78;;;;;;;11.12;100.00;99633.41;4997044;28;20034;-87
2023/04/01 09:55:45;;;;;;;10.10;6.78;;;;;;;11.17;100.00;99636.53;4974315;28;20144;-88
2023/04/01 09:58:48;;;;;;;9.43;6.35;;;;;;;11.20;100.00;99644.44;4982976;28;20398;-86
2023/04/01 10:01:43;;;;;;;6.90;5.72;;;;;;;11.15;100.00;99644.88;4999450;28;20052;-86
2023/04/01 10:04:22;;;;;;;8.85;6.80;;;;;;;11.10;100.00;99647.16;4970606;28;20454;-88
2023/04/01 10:07:07;;;;;;;10.60;6.60;;;;;;;11.11;100.00;99650.75;4972468;28;20027;-87
2023/04/01 10:09:51;;;;;;;9.88;6.70;;;;;;;11.09;100.00;99652.72;4963345;28;20677;-87
2023/04/01 10:12:48;;;;;;;8.30;7.30;;;;;;;11.09;100.00;99655.44;4973390;28;20391;-88
2023/04/01 10:15:38;;;;;;;8.85;6.63;;;;;;;11.06;100.00;99661.22;4997692;28;20030;-86
2023/04/01 10:18:24;;;;;;;10.40;7.55;;;;;;;11.04;100.00;99668.63;4966975;28;20358;-88
2023/04/01 10:21:12;;;;;;;9.77;7.63;;;;;;;11.11;100.00;99677.97;4977988;28;20541;-87
2023/04/01 10:23:54;;;;;;;10.60;7.60;;;;;;;11.08;100.00;99665.47;4972510;28;20030;-88
2023/04/01 10:26:44;;;;;;;11.48;8.02;;;;;;;11.08;100.00;99676.38;4989794;28;20506;-89
2023/04/01 10:29:47;;;;;;;10.15;7.75;;;;;;;11.04;100.00;99682.25;4971640;28;20117;-88
2023/04/01 10:32:25;;;;;;;11.00;7.72;;;;;;;11.10;100.00;99684.41;4989742;28;20030;-89
2023/04/01 10:35:09;;;;;;;12.63;8.50;;;;;;;11.10;100.00;99684.41;4972333;28;20042;-88
2023/04/01 10:37:35;;;;;;;10.52;7.63;;;;;;;11.06;100.00;99686.56;4973437;28;20061;-89
2023/04/01 10:40:29;;;;;;;12.73;8.63;;;;;;;11.06;100.00;99675.66;4988766;28;20022;-88
2023/04/01 10:44:05;;;;;;;11.23;7.60;;;;;;;11.11;100.00;99689.72;4953223;28;20593;-88
2023/04/01 10:46:54;;;;;;;12.48;8.18;;;;;;;11.10;100.00;99689.84;4979108;28;20113;-88
2023/04/01 10:49:37;;;;;;;9.00;7.68;;;;;;;11.11;100.00;99695.16;4979603;28;20032;-88
2023/04/01 10:52:06;;;;;;;11.38;8.63;;;;;;;11.13;100.00;99684.97;5005478;28;20082;-88
2023/04/01 10:55:22;;;;;;;10.18;7.97;;;;;;;11.14;100.00;99694.00;4962977;28;20057;-89
2023/04/01 10:58:15;;;;;;;13.40;8.80;;;;;;;11.14;100.00;99694.84;4972300;28;20101;-87
2023/04/01 11:01:51;;;;;;;11.98;8.55;;;;;;;11.14;100.00;99696.72;4982597;28;20026;-87
2023/04/01 11:05:10;;;;;;;12.30;8.88;;;;;;;11.19;100.00;99702.59;4989175;28;20169;-88
2023/04/01 11:08:33;;;;;;;11.88;8.57;;;;;;;11.27;100.00;99705.44;4979168;28;20148;-88
2023/04/01 11:11:02;;;;;;;13.10;9.25;;;;;;;11.23;100.00;99713.03;4984842;28;20508;-88
2023/04/01 11:13:34;;;;;;;16.77;9.65;;;;;;;11.21;100.00;99708.75;4972454;28;20034;-87
2023/04/01 11:16:40;;;;;;;13.02;9.05;;;;;;;11.14;100.00;99713.03;4986793;28;20069;-88
2023/04/01 11:20:06;;;;;;;15.27;9.27;;;;;;;11.10;100.00;99709.78;4975198;28;20038;-89
2023/04/01 11:22:51;;;;;;;17.40;9.43;;;;;;;11.10;100.00;99726.09;4954057;28;20439;-89
2023/04/01 11:25:29;;;;;;;12.73;9.48;;;;;;;11.02;100.00;99723.22;4980229;28;20030;-89
2023/04/01 11:28:43;;;;;;;13.10;9.77;;;;;;;11.04;100.00;99734.81;4957948;28;20034;-89
2023/04/01 11:31:23;;;;;;;13.20;9.50;;;;;;;10.95;100.00;99733.78;4976221;28;20506;-90
2023/04/01 11:34:13;;;;;;;14.57;10.48;;;;;;;10.88;100.00;99737.25;4956222;28;20038;-89
2023/04/01 11:36:55;;;;;;;15.43;9.63;;;;;;;10.85;100.00;99746.53;4983654;28;20042;-87
2023/04/01 11:39:30;;;;;;;16.45;9.18;;;;;;;10.84;100.00;99743.97;4988105;28;20031;-89
2023/04/01 11:42:34;;;;;;;15.88;10.40;;;;;;;10.88;100.00;99748.13;4973479;28;20045;-89
2023/04/01 11:45:34;;;;;;;14.20;8.75;;;;;;;10.83;100.00;99747.69;4984708;28;20121;-88
2023/04/01 11:48:14;;;;;;;16.40;10.18;;;;;;;10.81;100.00;99742.38;4958403;28;20448;-89
2023/04/01 11:50:52;;;;;;;12.38;8.32;;;;;;;10.85;100.00;99767.44;4979757;28;20058;-88
2023/04/01 11:53:43;;;;;;;14.95;9.63;;;;;;;10.94;100.00;99753.00;4972414;28;20038;-89
2023/04/01 11:56:31;;;;;;;12.57;9.48;;;;;;;11.05;100.00;99763.78;4988227;28;20042;-88
2023/04/01 11:59:04;;;;;;;10.98;8.43;;;;;;;11.14;100.00;99760.19;4982762;28;20094;-88
2023/04/01 12:01:42;;;;;;;13.02;8.63;;;;;;;11.20;100.00;99772.38;4987033;28;20490;-88
2023/04/01 12:04:26;;;;;;;16.98;8.13;;;;;;;11.22;100.00;99770.38;4977533;28;20061;-88
2023/04/01 12:07:25;;;;;;;10.32;8.07;;;;;;;11.21;100.00;99776.81;5008706;28;20132;-88
2023/04/01 12:10:06;;;;;;;10.70;7.78;;;;;;;11.10;100.00;99776.97;5008523;28;20045;-88
2023/04/01 12:12:50;;;;;;;14.85;7.72;;;;;;;11.06;100.00;99781.81;4989348;28;20126;-90
2023/04/01 12:15:28;;;;;;;12.13;8.20;;;;;;;10.98;100.00;99777.06;5004629;28;20037;-89
2023/04/01 12:18:06;;;;;;;11.20;7.68;;;;;;;11.01;100.00;99785.97;4978174;28;20042;-89